Time;durP1;ratioP1;P1;durP2;ratioP2;P2;SDS_P1;SDS_P2;PMS_P1;PMS_P2;Temp;Humidity;BMP_temperature;BMP_pressure;BME280_temperature;BME280_humidity;BME280_pressure;Samples;Min_cycle;Max_cycle;Signal;HPM_P1;HPM_P2
2023/08/05 00:01:21;;;;;;;4.70;1.40;;;;;;;27.60;53.19;99740.59;7395316;19;20010;-58
2023/08/05 00:03:47;;;;;;;3.63;1.23;;;;;;;27.70;52.92;99737.72;7395999;19;20467;-57
2023/08/05 00:06:13;;;;;;;6.38;1.75;;;;;;;27.67;52.74;99724.63;7396318;19;20070;-56
2023/08/05 00:08:39;;;;;;;4.80;0.77;;;;;;;28.15;52.47;99714.06;7394795;19;20038;-57
2023/08/05 00:11:05;;;;;;;6.95;1.10;;;;;;;27.53;53.28;99717.81;7395297;19;20369;-57
2023/08/05 00:13:34;;;;;;;5.00;1.02;;;;;;;27.39;53.28;99722.44;7400465;19;20095;-56
2023/08/05 00:16:06;;;;;;;3.13;1.15;;;;;;;26.88;54.56;99724.09;7394952;19;20014;-58
2023/08/05 00:18:32;;;;;;;3.88;0.65;;;;;;;27.27;53.88;99707.13;7394870;19;20014;-56
2023/08/05 00:20:58;;;;;;;2.47;0.85;;;;;;;27.02;54.89;99699.53;7392752;19;20021;-57
2023/08/05 00:23:24;;;;;;;0.90;0.50;;;;;;;27.03;55.19;99689.59;7398270;19;20006;-57
2023/08/05 00:25:51;;;;;;;2.00;1.25;;;;;;;26.78;55.32;99682.53;7398755;19;20023;-57
2023/08/05 00:28:17;;;;;;;1.20;0.93;;;;;;;26.90;54.82;99681.41;7394003;19;20377;-57
2023/08/05 00:30:43;;;;;;;1.75;0.60;;;;;;;27.00;54.88;99676.50;7393430;19;20042;-57
2023/08/05 00:33:09;;;;;;;2.08;1.05;;;;;;;26.62;55.39;99667.66;7398086;19;20459;-57
2023/08/05 00:35:36;;;;;;;2.80;0.75;;;;;;;26.60;55.89;99664.66;7394527;19;20025;-57
2023/08/05 00:38:02;;;;;;;6.55;1.90;;;;;;;27.85;53.72;99654.47;7398196;19;20018;-57
2023/08/05 00:40:29;;;;;;;2.55;1.17;;;;;;;26.82;53.84;99654.28;7392104;19;20014;-57
2023/08/05 00:42:55;;;;;;;5.10;1.23;;;;;;;27.99;52.40;99646.97;7395194;19;20011;-57
2023/08/05 00:45:21;;;;;;;1.88;0.77;;;;;;;28.25;52.06;99642.44;7394264;19;20035;-56
2023/08/05 00:47:47;;;;;;;5.45;0.93;;;;;;;22.37;70.64;99649.56;7393053;19;20066;-56
2023/08/05 00:50:14;;;;;;;0.88;0.70;;;;;;;27.28;60.81;99631.44;7395291;19;20013;-59
2023/08/05 00:52:42;;;;;;;3.42;1.48;;;;;;;24.47;61.15;99641.50;7394568;19;20014;-59
2023/08/05 00:55:09;;;;;;;2.17;1.05;;;;;;;27.32;57.96;99628.88;7396740;19;20011;-59
2023/08/05 00:57:36;;;;;;;2.70;1.55;;;;;;;27.37;57.50;99616.44;7395504;19;20052;-59
2023/08/05 01:00:03;;;;;;;2.50;0.45;;;;;;;27.18;57.24;99617.09;7391758;19;20010;-59
2023/08/05 01:02:29;;;;;;;2.15;0.85;;;;;;;26.98;58.06;99627.72;7392179;19;20062;-58
2023/08/05 01:04:55;;;;;;;1.00;0.88;;;;;;;27.48;56.60;99630.16;7392407;19;20015;-58
2023/08/05 01:07:23;;;;;;;1.15;0.80;;;;;;;28.29;54.81;99626.28;7397465;19;20015;-59
2023/08/05 01:09:49;;;;;;;2.35;1.35;;;;;;;28.60;54.02;99617.81;7393590;19;20354;-59
2023/08/05 01:12:15;;;;;;;6.68;1.63;;;;;;;29.06;53.10;99609.63;7393410;19;20006;-60
2023/08/05 01:14:41;;;;;;;4.97;2.40;;;;;;;28.80;53.13;99593.47;7392745;19;20346;-59
2023/08/05 01:17:08;;;;;;;13.43;0.98;;;;;;;29.21;52.43;99592.09;7392383;19;20529;-59
2023/08/05 01:19:35;;;;;;;1.98;0.77;;;;;;;29.07;51.96;99587.44;7396153;19;20018;-59
2023/08/05 01:22:10;;;;;;;2.65;1.48;;;;;;;28.64;52.45;99575.13;7394057;19;20014;-59
2023/08/05 01:25:04;;;;;;;1.42;1.13;;;;;;;28.13;53.27;99567.81;7393879;19;20022;-57
2023/08/05 01:27:32;;;;;;;2.22;1.20;;;;;;;27.58;55.00;99565.13;7392736;19;20033;-57
2023/08/05 01:30:00;;;;;;;5.05;1.35;;;;;;;27.46;55.32;99564.22;7394348;19;20011;-59
2023/08/05 01:32:28;;;;;;;0.98;0.38;;;;;;;26.89;56.02;99565.56;7393776;19;20035;-59
2023/08/05 01:34:54;;;;;;;0.55;0.47;;;;;;;26.64;56.97;99562.13;7391795;19;20087;-57
2023/08/05 01:37:21;;;;;;;2.58;1.70;;;;;;;26.25;58.00;99560.41;7393497;19;20164;-56
2023/08/05 01:39:47;;;;;;;1.38;1.02;;;;;;;26.22;58.53;99553.81;7388329;19;20010;-56
2023/08/05 01:42:13;;;;;;;2.58;1.25;;;;;;;26.34;58.46;99551.16;7389107;19;20021;-56
2023/08/05 01:44:39;;;;;;;1.75;1.13;;;;;;;26.39;58.71;99547.28;7392472;19;20017;-59
2023/08/05 01:47:05;;;;;;;1.48;0.85;;;;;;;26.47;58.43;99545.06;7392475;19;20027;-59
2023/08/05 01:49:32;;;;;;;3.15;1.33;;;;;;;26.61;57.92;99540.47;7391992;19;20113;-58
2023/08/05 01:51:58;;;;;;;2.92;0.65;;;;;;;26.68;57.69;99539.56;7393091;19;20014;-59
2023/08/05 01:54:24;;;;;;;0.50;0.32;;;;;;;26.44;58.55;99536.94;7392823;19;20035;-56
2023/08/05 01:56:51;;;;;;;3.65;1.15;;;;;;;26.70;57.85;99531.19;7395185;19;20006;-59
2023/08/05 01:59:17;;;;;;;4.55;1.02;;;;;;;26.63;58.14;99519.88;7397950;19;20041;-58
2023/08/05 02:01:45;;;;;;;5.45;0.75;;;;;;;26.58;58.24;99512.31;7399129;19;20013;-59
2023/08/05 02:04:12;;;;;;;3.47;1.65;;;;;;;26.52;58.10;99515.47;7399262;19;20019;-58
2023/08/05 02:06:39;;;;;;;1.25;0.43;;;;;;;26.53;57.92;99505.53;7399744;19;20340;-59
2023/08/05 02:09:05;;;;;;;12.93;1.58;;;;;;;27.60;55.92;99503.09;7399724;19;20081;-59
2023/08/05 02:11:32;;;;;;;1.65;0.93;;;;;;;27.26;56.46;99503.34;7401176;19;20343;-59
2023/08/05 02:13:58;;;;;;;2.28;1.02;;;;;;;26.76;56.75;99494.53;7400003;19;20029;-59
2023/08/05 02:16:24;;;;;;;4.10;1.48;;;;;;;27.33;56.87;99491.00;7398454;19;20044;-59
2023/08/05 02:18:51;;;;;;;2.15;1.20;;;;;;;28.10;54.68;99488.13;7401242;19;20105;-59
2023/08/05 02:21:17;;;;;;;2.42;1.25;;;;;;;28.00;54.87;99479.56;7400756;19;20017;-59
2023/08/05 02:23:43;;;;;;;1.55;1.25;;;;;;;27.48;55.62;99475.69;7400038;19;20080;-58
2023/08/05 02:26:10;;;;;;;1.02;0.52;;;;;;;27.37;55.31;99473.44;7403693;19;20014;-58
2023/08/05 02:28:36;;;;;;;0.93;0.80;;;;;;;28.50;53.76;99465.94;7397980;19;20046;-59
2023/08/05 02:31:02;;;;;;;1.17;0.88;;;;;;;27.07;54.55;99465.41;7401169;19;20018;-59
2023/08/05 02:33:29;;;;;;;2.95;1.02;;;;;;;26.71;58.60;99464.13;7398532;19;20014;-59
2023/08/05 02:35:59;;;;;;;2.72;2.13;;;;;;;27.11;56.99;99460.75;7400273;19;20006;-59
2023/08/05 02:38:25;;;;;;;3.88;0.88;;;;;;;26.96;57.05;99473.22;7397438;19;20344;-59
2023/08/05 02:40:52;;;;;;;1.20;1.05;;;;;;;27.00;56.89;99461.34;7397597;19;20082;-59
2023/08/05 02:43:19;;;;;;;3.05;0.73;;;;;;;26.99;57.10;99456.97;7399568;19;20325;-59
2023/08/05 02:45:52;;;;;;;1.75;0.77;;;;;;;27.16;57.01;99467.53;7397660;19;20034;-59
2023/08/05 02:48:18;;;;;;;15.80;2.17;;;;;;;27.48;56.48;99461.38;7399688;19;20338;-56
2023/08/05 02:50:44;;;;;;;1.13;1.00;;;;;;;27.30;56.87;99454.28;7398379;19;20343;-56
2023/08/05 02:53:10;;;;;;;1.15;0.98;;;;;;;26.85;57.42;99458.75;7397622;19;20078;-56
2023/08/05 02:55:36;;;;;;;6.45;2.10;;;;;;;26.49;59.33;99453.81;7400477;19;20024;-58
2023/08/05 02:58:03;;;;;;;1.30;1.13;;;;;;;26.46;59.48;99449.31;7399361;19;20096;-59
2023/08/05 03:00:29;;;;;;;2.45;0.75;;;;;;;26.35;59.70;99441.31;7394267;19;20018;-86
2023/08/05 03:02:55;;;;;;;4.90;1.13;;;;;;;25.99;60.30;99430.59;7392118;19;20014;-86
2023/08/05 03:05:21;;;;;;;8.60;1.73;;;;;;;25.99;61.42;99419.19;7393881;19;20007;-87
2023/08/05 03:07:47;;;;;;;2.22;1.33;;;;;;;25.84;62.08;99398.66;7400259;19;20026;-86
2023/08/05 03:10:13;;;;;;;5.05;0.82;;;;;;;26.24;61.24;99399.03;7394189;19;20014;-87
2023/08/05 03:12:40;;;;;;;1.83;1.27;;;;;;;25.94;62.06;99397.41;7396312;19;20392;-87
2023/08/05 03:15:07;;;;;;;2.92;1.27;;;;;;;26.04;62.05;99391.72;7395811;19;20038;-87
2023/08/05 03:17:34;;;;;;;3.50;0.93;;;;;;;25.78;64.66;99395.34;7395470;19;20030;-87
2023/08/05 03:20:05;;;;;;;4.13;1.80;;;;;;;25.74;64.85;99392.16;7394760;19;20031;-87
2023/08/05 03:22:34;;;;;;;6.32;1.88;;;;;;;25.61;65.01;99390.44;7396210;19;20011;-87
2023/08/05 03:25:01;;;;;;;4.63;1.55;;;;;;;25.62;64.86;99386.25;7394880;19;20025;-87
2023/08/05 03:27:29;;;;;;;2.50;0.88;;;;;;;25.54;65.50;99362.78;7393680;19;20414;-87
2023/08/05 03:29:59;;;;;;;2.60;1.73;;;;;;;25.82;64.85;99332.88;7396449;19;20010;-86
2023/08/05 03:32:25;;;;;;;7.00;2.80;;;;;;;21.66;82.38;99343.47;7396407;19;20029;-86
2023/08/05 03:34:51;;;;;;;2.17;1.05;;;;;;;25.91;70.95;99337.88;7394204;19;20026;-88
2023/08/05 03:37:18;;;;;;;3.83;0.90;;;;;;;25.98;69.21;99334.94;7393721;19;20014;-88
2023/08/05 03:39:44;;;;;;;1.58;0.93;;;;;;;26.38;66.78;99330.84;7390229;19;20077;-88
2023/08/05 03:42:11;;;;;;;5.30;1.17;;;;;;;26.49;66.20;99328.16;7393608;19;20503;-87
2023/08/05 03:44:37;;;;;;;3.50;0.55;;;;;;;26.01;66.99;99321.56;7390056;19;20014;-88
2023/08/05 03:47:04;;;;;;;1.23;0.70;;;;;;;26.19;66.01;99322.97;7389010;19;20111;-87
2023/08/05 03:49:30;;;;;;;6.10;0.90;;;;;;;26.09;66.02;99314.41;7389479;19;20468;-88
2023/08/05 03:51:56;;;;;;;8.35;1.58;;;;;;;25.81;67.32;99303.63;7397184;19;20054;-88
2023/08/05 03:54:22;;;;;;;0.50;0.25;;;;;;;26.02;67.10;99297.38;7399384;19;20035;-88
2023/08/05 03:56:48;;;;;;;1.90;0.82;;;;;;;25.97;66.54;99284.88;7396564;19;20469;-89
2023/08/05 03:59:20;;;;;;;7.97;1.20;;;;;;;25.86;66.76;99276.91;7395778;19;20030;-89
2023/08/05 04:01:46;;;;;;;1.33;1.23;;;;;;;25.69;67.86;99276.22;7394386;19;20486;-88
2023/08/05 04:04:12;;;;;;;6.85;0.93;;;;;;;26.14;70.51;99281.94;7394394;19;20014;-91
2023/08/05 04:06:38;;;;;;;2.05;0.85;;;;;;;26.48;66.91;99269.53;7396462;19;20020;-89
2023/08/05 04:09:06;;;;;;;0.95;0.77;;;;;;;27.68;62.52;99266.16;7396424;19;20011;-88
2023/08/05 04:11:37;;;;;;;5.97;0.90;;;;;;;28.00;60.70;99261.22;7392248;19;20018;-89
2023/08/05 04:14:03;;;;;;;;;;;;;;;27.72;59.98;99265.72;7394155;19;20018;-88
2023/08/05 04:16:30;;;;;;;0.73;0.73;;;;;;;27.29;61.05;99267.63;7396052;19;19919;-89
2023/08/05 04:18:58;;;;;;;3.65;1.10;;;;;;;27.07;61.54;99248.16;7393186;19;20053;-89
2023/08/05 04:21:28;;;;;;;2.05;0.70;;;;;;;27.46;61.29;99247.44;7392949;19;20018;-90
2023/08/05 04:23:58;;;;;;;1.45;1.13;;;;;;;26.97;62.05;99240.34;7394232;19;20011;-90
2023/08/05 04:26:24;;;;;;;4.43;0.80;;;;;;;26.08;64.12;99235.03;7399133;19;20018;-90
2023/08/05 04:28:50;;;;;;;3.65;1.15;;;;;;;25.70;65.57;99232.09;7397499;19;20086;-89
2023/08/05 04:31:16;;;;;;;6.70;1.33;;;;;;;26.04;65.46;99232.66;7391471;19;20014;-90
2023/08/05 04:33:43;;;;;;;5.72;1.80;;;;;;;24.68;70.86;99226.16;7394816;19;20074;-89
2023/08/05 04:36:09;;;;;;;3.95;0.88;;;;;;;20.90;97.38;99223.56;7394050;19;20006;-89
2023/08/05 04:38:35;;;;;;;1.63;1.17;;;;;;;20.43;99.09;99226.78;7393372;19;20311;-89
2023/08/05 04:41:01;;;;;;;4.22;1.30;;;;;;;17.49;100.00;99230.00;7394287;19;20010;-91
2023/08/05 04:43:27;;;;;;;2.92;0.25;;;;;;;16.63;100.00;99224.69;7391202;19;20023;-90
2023/08/05 04:45:54;;;;;;;3.65;1.08;;;;;;;23.18;100.00;99205.56;7390910;19;20014;-90
2023/08/05 04:48:20;;;;;;;9.48;1.20;;;;;;;25.92;89.02;99203.19;7391168;19;20369;-89
2023/08/05 04:50:46;;;;;;;6.00;1.27;;;;;;;26.43;79.68;99199.19;7391613;19;20022;-89
2023/08/05 04:53:15;;;;;;;1.40;1.25;;;;;;;26.27;85.83;99203.69;7397649;19;20050;-90
2023/08/05 04:55:41;;;;;;;1.17;0.68;;;;;;;27.25;75.90;99195.88;7397516;19;20006;-90
2023/08/05 04:58:08;;;;;;;5.78;1.33;;;;;;;27.45;72.12;99190.84;7393304;19;20697;-89
2023/08/05 05:00:34;;;;;;;6.50;1.38;;;;;;;21.54;100.00;99198.56;7391672;19;20082;-89
2023/08/05 05:03:00;;;;;;;2.00;0.90;;;;;;;18.73;100.00;99202.44;7392040;19;20102;-89
2023/08/05 05:05:27;;;;;;;1.67;0.43;;;;;;;17.06;100.00;99192.84;7395322;19;20019;-88
2023/08/05 05:07:53;;;;;;;4.72;1.10;;;;;;;16.65;100.00;99182.72;7392237;19;20010;-89
2023/08/05 05:10:19;;;;;;;1.17;0.80;;;;;;;16.73;100.00;99182.13;7390505;19;20022;-89
2023/08/05 05:12:45;;;;;;;3.92;1.27;;;;;;;18.54;100.00;99180.03;7393056;19;20533;-90
2023/08/05 05:15:11;;;;;;;1.10;1.00;;;;;;;25.42;95.47;99157.28;7391788;19;20019;-89
2023/08/05 05:17:37;;;;;;;3.90;1.40;;;;;;;27.23;80.66;99157.78;7396027;19;20035;-90
2023/08/05 05:20:04;;;;;;;2.42;1.10;;;;;;;23.86;92.89;99156.69;7391493;19;20047;-90
2023/08/05 05:22:31;;;;;;;2.42;1.27;;;;;;;24.88;92.29;99149.38;7391176;19;20014;-89
2023/08/05 05:24:58;;;;;;;1.75;0.68;;;;;;;26.38;85.60;99140.25;7393673;19;20022;-90
2023/08/05 05:27:24;;;;;;;6.68;1.25;;;;;;;26.17;84.76;99137.28;7392117;19;20032;-89
2023/08/05 05:29:50;;;;;;;3.47;1.27;;;;;;;27.82;76.35;99122.56;7394367;19;20013;-89
2023/08/05 05:32:16;;;;;;;3.35;1.20;;;;;;;27.07;76.57;99128.09;7391510;19;20509;-88
2023/08/05 05:34:42;;;;;;;4.90;1.75;;;;;;;25.51;82.36;99125.19;7393286;19;20334;-88
2023/08/05 05:37:09;;;;;;;2.05;0.90;;;;;;;26.32;78.11;99116.97;7396440;19;20023;-88
2023/08/05 05:39:35;;;;;;;1.38;0.50;;;;;;;26.68;76.55;99116.75;7391280;19;20405;-88
2023/08/05 05:42:01;;;;;;;1.80;0.95;;;;;;;27.48;74.45;99104.53;7394248;19;20014;-88
2023/08/05 05:44:28;;;;;;;2.97;0.57;;;;;;;25.48;76.19;99106.44;7390448;19;20040;-89
2023/08/05 05:46:54;;;;;;;3.13;0.82;;;;;;;25.43;87.11;99095.31;7391684;19;20022;-89
2023/08/05 05:49:20;;;;;;;2.67;1.90;;;;;;;25.50;83.33;99092.31;7391123;19;20006;-89
2023/08/05 05:51:47;;;;;;;1.75;1.13;;;;;;;25.17;84.85;99082.63;7393498;19;20074;-90
2023/08/05 05:54:13;;;;;;;1.45;0.98;;;;;;;24.41;88.16;99079.41;7392294;19;20014;-90
2023/08/05 05:56:39;;;;;;;2.38;0.85;;;;;;;19.68;100.00;99080.91;7391145;19;20074;-90
2023/08/05 05:59:06;;;;;;;4.18;1.67;;;;;;;20.40;100.00;99081.59;7391825;19;20141;-89
2023/08/05 06:01:32;;;;;;;2.47;1.10;;;;;;;23.91;96.89;99062.56;7390661;19;20006;-90
2023/08/05 06:03:58;;;;;;;0.82;0.40;;;;;;;24.57;91.50;99060.78;7391284;19;20019;-90
2023/08/05 06:06:24;;;;;;;0.95;0.30;;;;;;;24.27;92.05;99058.34;7390465;19;20022;-88
2023/08/05 06:08:50;;;;;;;1.05;0.75;;;;;;;24.35;91.22;99053.31;7389969;19;20026;-87
2023/08/05 06:11:16;;;;;;;0.40;0.40;;;;;;;24.40;91.60;99057.97;7390790;19;20015;-88
2023/08/05 06:13:42;;;;;;;1.05;0.32;;;;;;;24.57;90.07;99063.63;7394747;19;20018;-89
2023/08/05 06:16:08;;;;;;;3.50;1.20;;;;;;;24.66;89.31;99057.22;7394668;19;20011;-89
2023/08/05 06:18:34;;;;;;;4.22;1.08;;;;;;;24.55;89.84;99064.22;7389980;19;20038;-88
2023/08/05 06:21:00;;;;;;;2.53;0.55;;;;;;;24.74;88.59;99066.38;7389359;19;20018;-87
2023/08/05 06:23:26;;;;;;;0.40;0.32;;;;;;;25.23;86.55;99065.97;7392033;19;20461;-87
2023/08/05 06:25:53;;;;;;;1.85;0.57;;;;;;;25.16;85.54;99066.88;7391879;19;20039;-86
2023/08/05 06:28:19;;;;;;;1.38;0.55;;;;;;;25.18;85.94;99063.41;7387423;19;20354;-87
2023/08/05 06:30:45;;;;;;;0.95;0.28;;;;;;;25.53;83.41;99059.75;7386375;19;20018;-87
2023/08/05 06:33:12;;;;;;;0.57;0.20;;;;;;;25.40;82.85;99045.91;7393023;19;20626;-87
2023/08/05 06:35:40;;;;;;;1.73;0.70;;;;;;;25.46;82.52;99049.25;7392292;19;20410;-86
2023/08/05 06:38:06;;;;;;;1.23;1.00;;;;;;;25.56;82.07;99041.44;7389299;19;20181;-86
2023/08/05 06:40:32;;;;;;;1.13;0.35;;;;;;;25.73;80.34;99036.97;7387222;19;20014;-87
2023/08/05 06:42:58;;;;;;;0.30;0.30;;;;;;;25.81;79.27;99018.34;7396834;19;20039;-87
2023/08/05 06:45:25;;;;;;;3.00;1.10;;;;;;;25.74;79.56;99015.63;7394166;19;20049;-87
2023/08/05 06:47:51;;;;;;;0.32;0.32;;;;;;;25.68;79.60;98998.06;7395384;19;20026;-88
2023/08/05 06:50:17;;;;;;;0.35;0.30;;;;;;;25.62;79.90;98989.06;7395485;19;20014;-87
2023/08/05 06:52:43;;;;;;;3.28;0.88;;;;;;;25.85;78.22;98986.50;7399281;19;20035;-87
2023/08/05 06:55:09;;;;;;;6.70;0.88;;;;;;;26.21;78.08;98983.41;7397496;19;20021;-88
2023/08/05 06:57:36;;;;;;;8.43;0.70;;;;;;;26.02;77.10;98977.75;7397555;19;20375;-88
2023/08/05 07:00:02;;;;;;;3.33;0.75;;;;;;;25.70;78.10;98970.44;7394708;19;20010;-88
2023/08/05 07:02:28;;;;;;;0.50;0.30;;;;;;;25.58;77.90;98968.81;7397386;19;20059;-88
2023/08/05 07:04:55;;;;;;;1.35;0.35;;;;;;;25.58;76.98;98963.84;7396452;19;20078;-87
2023/08/05 07:07:21;;;;;;;0.43;0.25;;;;;;;20.36;96.59;98968.06;7393022;19;20033;-88
2023/08/05 07:09:47;;;;;;;2.40;0.63;;;;;;;21.39;100.00;98963.44;7393461;19;20015;-88
2023/08/05 07:12:13;;;;;;;2.45;0.90;;;;;;;20.14;100.00;98963.13;7399566;19;20087;-88
2023/08/05 07:14:39;;;;;;;1.40;0.55;;;;;;;22.45;99.81;98952.28;7396022;19;20022;-88
2023/08/05 07:17:06;;;;;;;2.58;0.65;;;;;;;24.72;93.40;98938.84;7394319;19;20025;-87
2023/08/05 07:19:32;;;;;;;2.65;0.98;;;;;;;19.05;100.00;98940.50;7395157;19;20024;-88
2023/08/05 07:21:58;;;;;;;1.30;0.93;;;;;;;17.87;100.00;98932.75;7396832;19;20010;-88
2023/08/05 07:24:24;;;;;;;2.15;0.70;;;;;;;17.81;100.00;98920.88;7394713;19;20018;-88
2023/08/05 07:26:50;;;;;;;0.30;0.30;;;;;;;17.53;100.00;98903.88;7394488;19;20018;-88
2023/08/05 07:29:20;;;;;;;6.55;1.48;;;;;;;16.63;100.00;98892.94;7393630;19;20023;-89
2023/08/05 07:31:46;;;;;;;6.18;1.65;;;;;;;24.06;100.00;98868.97;7393475;19;20366;-89
2023/08/05 07:34:13;;;;;;;2.10;0.57;;;;;;;21.79;100.00;98873.50;7392303;19;20018;-89
2023/08/05 07:36:41;;;;;;;3.42;1.77;;;;;;;24.52;94.07;98862.50;7394244;19;20043;-92
2023/08/05 07:39:08;;;;;;;1.45;0.30;;;;;;;22.00;99.76;98864.69;7392804;19;20029;-89
2023/08/05 07:41:36;;;;;;;2.92;0.95;;;;;;;24.00;97.26;98882.69;7395474;19;20011;-89
2023/08/05 07:44:03;;;;;;;0.43;0.40;;;;;;;25.92;84.38;98877.91;7394780;19;20007;-89
2023/08/05 07:46:35;;;;;;;2.55;0.30;;;;;;;22.44;95.61;98888.31;7394655;19;20006;-93
2023/08/05 07:49:03;;;;;;;0.63;0.63;;;;;;;18.37;100.00;98894.13;7395037;19;20119;-92
2023/08/05 07:51:30;;;;;;;1.38;0.68;;;;;;;22.83;98.58;98888.72;7394989;19;20017;-91
2023/08/05 07:53:57;;;;;;;0.68;0.22;;;;;;;26.89;82.18;98881.78;7392650;19;20016;-91
2023/08/05 07:56:24;;;;;;;7.63;1.00;;;;;;;26.68;78.62;98893.91;7399986;19;20040;-91
2023/08/05 07:58:50;;;;;;;3.30;1.25;;;;;;;26.65;79.92;98898.00;7394718;19;20097;-90
2023/08/05 08:01:21;;;;;;;3.20;0.82;;;;;;;24.07;85.84;98898.91;7392067;19;20014;-91
2023/08/05 08:03:51;;;;;;;1.27;0.75;;;;;;;27.46;74.42;98877.72;7393163;19;20043;-90
2023/08/05 08:06:18;;;;;;;0.43;0.38;;;;;;;27.42;72.38;98866.00;7392309;19;20018;-90
2023/08/05 08:08:45;;;;;;;3.28;0.57;;;;;;;27.16;72.74;98856.44;7391934;19;20014;-91
2023/08/05 08:11:12;;;;;;;0.65;0.65;;;;;;;27.38;71.81;98857.16;7392966;19;20047;-91
2023/08/05 08:13:39;;;;;;;1.40;0.47;;;;;;;27.46;69.80;98849.13;7394109;19;20026;-91
2023/08/05 08:16:06;;;;;;;0.75;0.57;;;;;;;27.84;68.91;98845.06;7395846;19;20447;-94
2023/08/05 08:18:32;;;;;;;0.50;0.20;;;;;;;27.95;68.27;98842.22;7394700;19;20019;-92
2023/08/05 08:20:58;;;;;;;1.10;0.52;;;;;;;27.82;67.04;98831.41;7394839;19;20353;-92
2023/08/05 08:23:25;;;;;;;1.05;0.60;;;;;;;25.90;78.43;98834.22;7398075;19;20022;-89
2023/08/05 08:25:51;;;;;;;0.32;0.32;;;;;;;27.22;71.70;98830.38;7390934;19;20019;-88
2023/08/05 08:28:17;;;;;;;1.77;0.50;;;;;;;27.50;69.71;98823.63;7389058;19;20346;-91
2023/08/05 08:30:57;;;;;;;0.20;0.15;;;;;;;29.29;63.30;98823.06;7391495;19;20018;-90
2023/08/05 08:33:25;;;;;;;6.47;0.73;;;;;;;29.46;61.33;98819.72;7395419;19;20476;-90
2023/08/05 08:35:51;;;;;;;3.35;1.05;;;;;;;29.39;61.32;98815.03;7392642;19;20018;-87
2023/08/05 08:38:18;;;;;;;2.17;0.22;;;;;;;29.91;58.65;98817.94;7392767;19;20015;-89
2023/08/05 08:40:46;;;;;;;0.65;0.30;;;;;;;30.27;57.49;98819.16;7391094;19;20039;-89
2023/08/05 08:43:17;;;;;;;6.00;0.65;;;;;;;29.43;59.18;98809.53;7396726;19;20460;-91
2023/08/05 08:45:46;;;;;;;4.50;0.80;;;;;;;29.97;57.49;98809.66;7392036;19;20048;-88
2023/08/05 08:48:13;;;;;;;0.88;0.30;;;;;;;30.40;56.03;98800.44;7392663;19;20028;-89
2023/08/05 08:50:40;;;;;;;0.38;0.30;;;;;;;30.52;55.64;98792.44;7392357;19;20023;-90
2023/08/05 08:53:12;;;;;;;3.75;0.85;;;;;;;30.64;55.15;98793.06;7398201;19;20007;-90
2023/08/05 08:55:42;;;;;;;1.13;0.60;;;;;;;30.18;56.45;98794.25;7396088;19;20036;-91
2023/08/05 08:58:09;;;;;;;0.77;0.50;;;;;;;31.16;54.49;98789.19;7393181;19;20100;-91
2023/08/05 09:00:36;;;;;;;1.00;0.35;;;;;;;31.61;52.98;98795.72;7393640;19;20022;-89
2023/08/05 09:03:06;;;;;;;0.55;0.10;;;;;;;31.77;52.22;98792.84;7394897;19;20018;-90
2023/08/05 09:05:45;;;;;;;3.22;0.73;;;;;;;31.60;51.40;98784.84;7392048;19;20018;-89
2023/08/05 09:08:12;;;;;;;0.22;0.22;;;;;;;31.52;51.92;98785.19;7391880;19;20019;-89
2023/08/05 09:10:38;;;;;;;1.98;0.65;;;;;;;30.75;52.85;98779.94;7390981;19;20019;-90
2023/08/05 09:13:06;;;;;;;0.88;0.43;;;;;;;31.17;51.59;98771.28;7396351;19;20090;-90
2023/08/05 09:15:33;;;;;;;1.60;0.50;;;;;;;29.61;54.37;98778.19;7392764;19;20085;-89
2023/08/05 09:18:04;;;;;;;1.58;0.28;;;;;;;29.56;54.89;98782.97;7392872;19;20018;-89
2023/08/05 09:20:31;;;;;;;;;;;;;;;29.05;58.66;98781.50;7391444;19;20018;-89
2023/08/05 09:23:00;;;;;;;1.40;0.28;;;;;;;31.94;53.52;98777.78;7395179;19;19929;-89
2023/08/05 09:25:32;;;;;;;0.32;0.25;;;;;;;25.54;66.44;98776.09;7392734;19;20015;-91
2023/08/05 09:28:00;;;;;;;0.77;0.15;;;;;;;32.55;52.54;98776.22;7394816;19;20014;-90
2023/08/05 09:30:26;;;;;;;3.30;0.38;;;;;;;29.19;61.37;98779.47;7390088;19;20086;-91
2023/08/05 09:32:56;;;;;;;3.30;0.55;;;;;;;29.86;56.40;98781.81;7395396;19;20013;-90
2023/08/05 09:35:24;;;;;;;0.50;0.22;;;;;;;29.05;57.42;98784.38;7392953;19;20039;-91
2023/08/05 09:37:52;;;;;;;1.33;0.20;;;;;;;29.93;54.40;98780.72;7395597;19;20019;-91
2023/08/05 09:40:29;;;;;;;1.55;0.40;;;;;;;29.85;54.50;98791.78;7389913;19;20512;-89
2023/08/05 09:43:02;;;;;;;0.60;0.60;;;;;;;29.55;54.34;98780.75;7393454;19;20346;-89
2023/08/05 09:45:30;;;;;;;0.32;0.30;;;;;;;29.39;54.31;98777.72;7390191;19;20027;-90
2023/08/05 09:48:03;;;;;;;0.90;0.70;;;;;;;29.76;53.67;98772.63;7391313;19;20007;-89
2023/08/05 09:50:36;;;;;;;0.57;0.20;;;;;;;30.01;53.25;98768.94;7390151;19;20022;-90
2023/08/05 09:53:09;;;;;;;2.88;0.38;;;;;;;30.18;52.58;98770.50;7396079;19;20018;-89
2023/08/05 09:55:38;;;;;;;0.55;0.40;;;;;;;30.21;52.48;98770.00;7395902;19;20037;-89
2023/08/05 09:58:07;;;;;;;1.77;0.50;;;;;;;30.08;52.61;98773.63;7391070;19;20011;-90
2023/08/05 10:00:42;;;;;;;0.85;0.32;;;;;;;30.01;52.81;98762.44;7389915;19;20034;-89
2023/08/05 10:03:13;;;;;;;2.33;0.50;;;;;;;30.02;53.00;98761.78;7393234;19;20006;-90
2023/08/05 10:05:43;;;;;;;0.35;0.25;;;;;;;30.04;53.64;98761.16;7389449;19;20460;-92
2023/08/05 10:08:11;;;;;;;0.73;0.60;;;;;;;30.16;53.54;98750.31;7391349;19;20032;-90
2023/08/05 10:10:38;;;;;;;0.55;0.45;;;;;;;30.61;52.86;98751.22;7390387;19;20082;-88
2023/08/05 10:13:08;;;;;;;0.57;0.47;;;;;;;30.41;53.33;98753.81;7395798;19;20022;-91
2023/08/05 10:15:40;;;;;;;0.98;0.75;;;;;;;30.90;52.21;98750.53;7390374;19;20014;-91
2023/08/05 10:18:10;;;;;;;2.67;0.35;;;;;;;30.50;53.24;98746.34;7398139;19;20015;-91
2023/08/05 10:20:38;;;;;;;0.83;0.57;;;;;;;30.50;53.19;98744.22;7396429;19;20019;-92
2023/08/05 10:23:07;;;;;;;0.70;0.35;;;;;;;30.41;53.10;98735.81;7396047;19;20015;-87
2023/08/05 10:25:44;;;;;;;0.10;0.10;;;;;;;30.43;53.09;98727.31;7399442;19;20019;-88
2023/08/05 10:28:23;;;;;;;1.35;0.45;;;;;;;30.37;53.53;98716.25;7397027;19;20014;-88
2023/08/05 10:30:50;;;;;;;1.80;0.60;;;;;;;30.27;54.32;98723.59;7395102;19;20478;-89
2023/08/05 10:33:17;;;;;;;3.90;0.75;;;;;;;30.19;54.78;98717.44;7403438;19;20007;-87
2023/08/05 10:35:44;;;;;;;0.70;0.28;;;;;;;30.19;54.13;98720.31;7399166;19;20343;-89
2023/08/05 10:38:18;;;;;;;0.40;0.35;;;;;;;30.49;53.84;98719.72;7398571;19;20021;-87
2023/08/05 10:41:01;;;;;;;7.47;0.73;;;;;;;30.39;53.90;98715.59;7397064;19;20015;-88
2023/08/05 10:43:30;;;;;;;0.90;0.52;;;;;;;30.16;54.30;98719.47;7399212;19;20018;-89
2023/08/05 10:45:57;;;;;;;1.80;0.77;;;;;;;30.26;55.04;98714.22;7394336;19;20015;-91
2023/08/05 10:48:50;;;;;;;3.13;0.38;;;;;;;30.20;55.43;98710.31;7394839;19;20022;-88
2023/08/05 10:51:25;;;;;;;0.93;0.43;;;;;;;30.27;56.24;98709.22;7393983;19;20010;-89
2023/08/05 10:53:51;;;;;;;0.65;0.20;;;;;;;30.32;56.46;98711.69;7398220;19;20027;-90
2023/08/05 10:56:17;;;;;;;0.68;0.47;;;;;;;30.48;55.67;98711.75;7401458;19;20007;-89
2023/08/05 10:58:48;;;;;;;2.90;0.43;;;;;;;30.26;56.40;98708.47;7396039;19;20019;-87
2023/08/05 11:01:15;;;;;;;0.17;0.17;;;;;;;30.21;56.78;98712.53;7393383;19;20026;-90
2023/08/05 11:03:47;;;;;;;2.95;0.93;;;;;;;30.25;56.75;98709.13;7393662;19;20031;-89
2023/08/05 11:06:15;;;;;;;2.00;0.57;;;;;;;30.16;57.15;98710.09;7394892;19;20135;-90
2023/08/05 11:08:42;;;;;;;0.10;0.10;;;;;;;30.22;57.24;98714.03;7397762;19;20015;-89
2023/08/05 11:11:13;;;;;;;0.55;0.32;;;;;;;31.86;56.29;98722.69;7393416;19;20359;-88
2023/08/05 11:13:41;;;;;;;1.05;0.60;;;;;;;30.17;58.18;98720.22;7396572;19;20089;-89
2023/08/05 11:16:13;;;;;;;0.30;0.30;;;;;;;28.88;58.82;98733.22;7397779;19;20036;-89
2023/08/05 11:21:55;;;;;;;0.55;0.55;;;;;;;30.47;57.05;98734.00;7425023;19;20371;-88
2023/08/05 11:24:21;;;;;;;0.85;0.35;;;;;;;36.77;54.95;98714.06;7423968;19;20022;-88
2023/08/05 11:26:47;;;;;;;2.03;0.20;;;;;;;39.62;42.71;98712.34;7424483;19;20014;-85
2023/08/05 11:29:14;;;;;;;0.47;0.28;;;;;;;40.34;38.94;98717.56;7425238;19;20032;-85
2023/08/05 11:31:50;;;;;;;2.42;0.32;;;;;;;42.70;34.92;98710.88;7424732;19;20014;-85
2023/08/05 11:34:21;;;;;;;0.85;0.10;;;;;;;34.73;42.07;98726.84;7427138;19;20031;-85
2023/08/05 11:36:55;;;;;;;0.40;0.05;;;;;;;30.91;52.92;98729.75;7429331;19;20014;-86
2023/08/05 11:39:23;;;;;;;0.30;0.30;;;;;;;30.14;56.43;98724.34;7428331;19;20018;-86